Luechow, Germany

9:51 AM CEST on July 01, 2015 (GMT +0200)
Riebau | | Change Station
CLOSE
Current Station
Personal Weather Station
Location: Hansestadt Salzwedel, SACHSEN-ANHALT
Elevation: 72 ft
Nearby Weather Stations

Elev 72 ft 52.86 °N, 11.27 °E | Updated 7 seconds ago

Clear
Clear
74.7 °F
Feels Like 77 °F
N
4.5
Wind Variable Wind from SE
Gusts 4.9 mph

Today
High -- | Low -- °F
--% Chance of Precip.
Yesterday
High -- | Low -- °F
Precip. -- in
4:53 AM 9:44 PM
Waxing Gibbous, 99% visible
Pressure 30.27 in
Visibility -9999.0 miles
Clouds
Heat Index 77 °F
Dew Point 56 °F
Humidity 53%
Rainfall 0.00 in
Snow Depth Not available.
UV 4.0 out of 12
Pollen Not available.
Air Quality Not available.
Flu Activity Not available.
METAR EDOP 010750Z 08007KT 050V110 CAVOK 21/11 Q1025 RMK ATIS E

More Conditions Fewer Conditions

Pressure 30.27 in
Visibility -9999.0 miles
Clouds
Heat Index 77 °F
Dew Point 56 °F
Humidity 53%
Rainfall 0.00 in
Snow Depth Not available.
UV 4.0 out of 12
Pollen Not available.
Air Quality Not available.
Flu Activity Not available.
METAR EDOP 010750Z 08007KT 050V110 CAVOK 21/11 Q1025 RMK ATIS E

More Conditions Fewer Conditions

10-Day Weather Forecast

×

Almanac

Astronomy

Jul. 01, 2015 Rise Set
Actual Time
Civil Twilight
Nautical Twilight
Astronomical Twilight
Moon
Length of Visible Light
Length of Day
Tomorrow will be .
, % of the Moon is Illuminated

Today's Extremes

Country Highs Country Lows

Community

WunderPhotos

Upload Photos

1,834,164 photos uploaded!

WunderBlogs® & News

Nearby

Air Quality

  Air Quality AQ Index Pollutant
Not available.

Snow Depth

Station Depth Elevation

Earthquake Activity

City Distance Mag. Time & Date
Minimum magnitude displayed is 2.5.

Coastal Water Temperatures

Place Temperature

Stations

Nearby Weather Stations

Station Location Temp. Windchill Dew Point Humidity Wind Precip. Elev Updated Type